Flight Track Log - Related Links

Times and Time Zones

All times are in EDT time to prevent confusion due to time zone crossing. See the AWI3970 flight status page for this flight to view local times or setup timezone preferences in your user account.

Time Position Orientation Groundspeed Altitude Reporting Facility
EDT Latitude Longitude Course Direction KTS MPH feet Rate Location/Type
Sun 10:54:25 PM 39.8667 -75.2667 37° Northeast 178 205 900  Level Philadelphia TRACON
Sun 10:55:43 PM 39.8167 -75.3333 226° Southwest 232 267 4,000 2,591 Climbing Philadelphia TRACON
Sun 10:56:37 PM 39.7833 -75.2667 123° Southeast 250 288 6,600 2,400 Climbing Philadelphia TRACON
Sun 10:57:43 PM 39.7833 -75.1667 90° East 280 322 8,800 2,286 Climbing Philadelphia TRACON
Sun 10:58:00 PM 39.7978 -74.7723 105° East  Level FlightAware Approximate
Sun 10:58:43 PM 39.8000 -75.0667 78° East 297 342 11,400  Level Philadelphia TRACON
Sun 10:59:00 PM 39.8112 -74.6722 37° Northeast  Level FlightAware Approximate
Sun 10:59:37 PM 39.8000 -74.9667 90° East 313 360 12,000  Level Philadelphia TRACON
Sun 11:00:37 PM 39.8000 -74.8333 90° East 363 418 12,000  Level Philadelphia TRACON
Sun 11:01:21 PM 39.7983 -74.7508 91° East 397 457 12,000 231 Level New York Center
Sun 11:02:21 PM 39.8686 -74.6439 49° Northeast 375 432 12,400 1,250 Climbing New York Center
Sun 11:03:21 PM 39.9525 -74.5619 37° Northeast 362 417 14,500 2,250 Climbing New York Center
Sun 11:04:21 PM 40.0453 -74.4694 37° Northeast 362 417 16,900 1,611 Climbing New York Center
Sun 11:06:16 PM 40.2303 -74.4161 12° North 346 398 19,200 1,269 Climbing Boston Center
Sun 11:07:16 PM 40.3308 -74.3947 North 358 412 20,600 1,210 Climbing Boston Center
Sun 11:08:15 PM 40.4333 -74.3703 10° North 364 419 21,600 950 Climbing Boston Center
Sun 11:09:16 PM 40.5378 -74.3433 11° North 371 427 22,500 893 Climbing Boston Center
Sun 11:10:16 PM 40.6425 -74.3164 11° North 371 427 23,400 1,220 Climbing Boston Center
Sun 11:11:14 PM 40.7511 -74.3003 North 371 427 24,900 1,271 Climbing Boston Center
Sun 11:12:14 PM 40.8536 -74.2758 10° North 371 427 25,900 545 Climbing Boston Center
Sun 11:13:15 PM 40.9583 -74.2486 11° North 371 427 26,000 50 Climbing Boston Center
Sun 11:14:15 PM 41.0669 -74.2242 10° North 382 440 26,000  Level Boston Center
Sun 11:15:14 PM 41.1781 -74.1969 10° North 394 453 26,000  Level Boston Center
Sun 11:16:15 PM 41.2783 -74.1664 13° North 399 459 26,000  Level Boston Center
Sun 11:17:14 PM 41.3892 -74.1417 North 404 465 26,000  Level Boston Center
Sun 11:18:15 PM 41.4864 -74.0639 31° Northeast 396 456 26,000 -450 Level Boston Center
Sun 11:19:14 PM 41.5836 -73.9556 40° Northeast 401 461 25,100 -1,250 Descending Boston Center
Sun 11:20:15 PM 41.6664 -73.8544 42° Northeast 401 461 23,500 -1,600 Descending Boston Center
Sun 11:21:14 PM 41.7625 -73.8344 North 346 398 21,900 -1,488 Descending Boston Center
Sun 11:22:16 PM 41.8625 -73.8339 360° North 346 398 20,500 -1,500 Descending Boston Center
Sun 11:22:46 PM 41.9208 -73.8325 North 365 420 19,600 -1,545 Descending Boston Center
Sun 11:23:22 PM 41.9750 -73.8308 North 368 423 18,800 -1,133 Descending Boston Center
Sun 11:24:16 PM 42.0606 -73.8269 North 373 429 17,900 -1,446 Descending Boston Center
Sun 11:25:14 PM 42.1753 -73.8211 North 373 429 16,100 -1,627 Descending Boston Center
Sun 11:26:14 PM 42.2608 -73.8092 North 355 409 14,700 -1,721 Descending Boston Center
Sun 11:27:16 PM 42.3569 -73.7942 North 328 377 12,600 -1,900 Descending Boston Center
Sun 11:28:14 PM 42.4342 -73.7847 North 318 366 10,900 -1,742 Descending Boston Center
Sun 11:29:20 PM 42.5239 -73.7642 10° North 283 326 9,000 -1,672 Descending Boston Center
Sun 11:30:16 PM 42.5808 -73.7203 30° Northeast 267 307 7,500 -1,947 Descending Boston Center
Sun 11:31:14 PM 42.6561 -73.6908 16° North 260 299 5,300 -2,186 Descending Boston Center
Sun 11:32:14 PM 42.7269 -73.6950 358° North 247 284 3,200 -1,150 Descending Boston Center
Sun 11:33:14 PM 42.7914 -73.6992 357° North 242 278 3,000 -443 Descending Boston Center
Sun 11:34:16 PM 42.8414 -73.7172 345° North 219 252 2,300 -578 Descending Boston Center
Sun 11:35:29 PM 42.8361 -73.8019 265° West 133 153 1,700 -496 Descending Boston Center
Sun 11:36:29 PM 42.8006 -73.8097 189° South 113 130 1,200 -600 Descending Boston Center
Sun 11:37:29 PM 42.7672 -73.8061 175° South 122 140 500 -700 Descending Boston Center

Login

Don't have an account? Register now (free) for customized features, flight alerts, and more!